Time;durP1;ratioP1;P1;durP2;ratioP2;P2;SDS_P1;SDS_P2;PMS_P1;PMS_P2;Temp;Humidity;BMP_temperature;BMP_pressure;BME280_temperature;BME280_humidity;BME280_pressure;Samples;Min_cycle;Max_cycle;Signal;HPM_P1;HPM_P2
2022/09/29 00:01:25;;;;;;;;;;;9.00;77.30;;;;;;5072942;28;19923;-75
2022/09/29 00:03:51;;;;;;;;;;;9.00;77.30;;;;;;5074816;28;20392;-76
2022/09/29 00:06:17;;;;;;;;;;;9.00;77.30;;;;;;5073839;28;20383;-75
2022/09/29 00:08:42;;;;;;;;;;;9.00;77.30;;;;;;5075758;28;19931;-75
2022/09/29 00:11:08;;;;;;;;;;;9.00;77.40;;;;;;5059767;28;19952;-75
2022/09/29 00:13:34;;;;;;;;;;;9.00;77.40;;;;;;5074557;28;20498;-76
2022/09/29 00:16:00;;;;;;;;;;;8.90;77.30;;;;;;5076632;28;19920;-75
2022/09/29 00:18:26;;;;;;;;;;;8.90;77.30;;;;;;5074871;28;20529;-76
2022/09/29 00:21:10;;;;;;;;;;;8.90;77.30;;;;;;5059232;28;19935;-76
2022/09/29 00:23:36;;;;;;;;;;;8.90;77.40;;;;;;5073463;28;19915;-76
2022/09/29 00:26:02;;;;;;;;;;;8.80;77.40;;;;;;5088663;28;19921;-75
2022/09/29 00:28:27;;;;;;;;;;;8.80;77.40;;;;;;5076490;28;19916;-77
2022/09/29 00:30:53;;;;;;;;;;;8.80;77.50;;;;;;5074744;28;19919;-76
2022/09/29 00:33:18;;;;;;;;;;;8.70;77.50;;;;;;5075961;28;19919;-76
2022/09/29 00:35:44;;;;;;;;;;;8.70;77.50;;;;;;5075953;28;20516;-75
2022/09/29 00:38:09;;;;;;;;;;;8.70;77.50;;;;;;5075727;28;19923;-77
2022/09/29 00:40:34;;;;;;;;;;;8.70;77.60;;;;;;5076669;28;20116;-76
2022/09/29 00:43:00;;;;;;;;;;;8.60;77.60;;;;;;5070193;28;20435;-76
2022/09/29 00:45:25;;;;;;;;;;;8.60;77.60;;;;;;5079718;28;20018;-76
2022/09/29 00:48:01;;;;;;;;;;;8.60;77.60;;;;;;5074245;28;19968;-76
2022/09/29 00:50:29;;;;;;;;;;;8.50;77.50;;;;;;5075505;28;20503;-77
2022/09/29 00:52:56;;;;;;;;;;;8.50;77.60;;;;;;5071189;28;20006;-76
2022/09/29 00:55:23;;;;;;;;;;;8.50;77.60;;;;;;5060609;28;20296;-74
2022/09/29 00:57:54;;;;;;;;;;;8.50;77.60;;;;;;5058486;28;19965;-77
2022/09/29 01:00:20;;;;;;;;;;;8.40;77.60;;;;;;5066028;28;19959;-77
2022/09/29 01:02:47;;;;;;;;;;;8.40;77.60;;;;;;5079039;28;19916;-75
2022/09/29 01:05:15;;;;;;;;;;;8.40;77.60;;;;;;5076417;28;19909;-77
2022/09/29 01:07:41;;;;;;;;;;;8.30;77.70;;;;;;5070768;28;19927;-76
2022/09/29 01:10:07;;;;;;;;;;;8.30;77.70;;;;;;5066985;28;19916;-76
2022/09/29 01:12:32;;;;;;;;;;;8.30;77.80;;;;;;5068882;28;20663;-75
2022/09/29 01:14:58;;;;;;;;;;;8.30;77.80;;;;;;5081874;28;19952;-75
2022/09/29 01:17:23;;;;;;;;;;;8.20;77.80;;;;;;5080616;28;19958;-76
2022/09/29 01:19:51;;;;;;;;;;;8.20;77.80;;;;;;5081337;28;20312;-76
2022/09/29 01:22:32;;;;;;;;;;;8.20;77.80;;;;;;5086603;28;19917;-76
2022/09/29 01:25:17;;;;;;;;;;;8.10;77.80;;;;;;5071184;28;19912;-76
2022/09/29 01:27:46;;;;;;;;;;;8.10;77.90;;;;;;5040076;28;19946;-76
2022/09/29 01:30:18;;;;;;;;;;;8.10;77.90;;;;;;5082679;28;20327;-76
2022/09/29 01:32:50;;;;;;;;;;;8.00;77.90;;;;;;5080456;28;20469;-77
2022/09/29 01:35:19;;;;;;;;;;;8.00;77.90;;;;;;5079582;28;19912;-75
2022/09/29 01:38:01;;;;;;;;;;;8.00;78.00;;;;;;5078283;28;19916;-76
2022/09/29 01:40:38;;;;;;;;;;;7.90;77.90;;;;;;5058510;28;19913;-76
2022/09/29 01:43:06;;;;;;;;;;;7.90;78.00;;;;;;5099744;28;19932;-76
2022/09/29 01:45:32;;;;;;;;;;;7.90;78.00;;;;;;5079353;28;19920;-76
2022/09/29 01:48:04;;;;;;;;;;;7.80;78.00;;;;;;5076901;28;19946;-77
2022/09/29 01:50:31;;;;;;;;;;;7.80;78.00;;;;;;5081788;28;19935;-77
2022/09/29 01:52:59;;;;;;;;;;;7.80;78.00;;;;;;5080171;28;20166;-76
2022/09/29 01:55:25;;;;;;;;;;;7.80;78.10;;;;;;5065284;28;20391;-75
2022/09/29 01:58:03;;;;;;;;;;;7.80;78.20;;;;;;5083526;28;19920;-76
2022/09/29 02:00:32;;;;;;;;;;;7.70;78.10;;;;;;5064101;28;19952;-75
2022/09/29 02:03:00;;;;;;;;;;;7.70;78.20;;;;;;5077783;28;20074;-76
2022/09/29 02:05:26;;;;;;;;;;;7.70;78.20;;;;;;5076332;28;19920;-76
2022/09/29 02:07:51;;;;;;;;;;;7.70;78.20;;;;;;5078448;28;19915;-76
2022/09/29 02:10:18;;;;;;;;;;;7.70;78.30;;;;;;5066276;28;19924;-76
2022/09/29 02:12:44;;;;;;;;;;;7.60;78.20;;;;;;5084222;28;19912;-76
2022/09/29 02:15:11;;;;;;;;;;;7.60;78.30;;;;;;5066053;28;19916;-75
2022/09/29 02:17:37;;;;;;;;;;;7.60;78.30;;;;;;5080637;28;19951;-77
2022/09/29 02:20:03;;;;;;;;;;;7.60;78.40;;;;;;5087452;28;19950;-75
2022/09/29 02:22:28;;;;;;;;;;;7.60;78.40;;;;;;5071625;28;19919;-76
2022/09/29 02:24:54;;;;;;;;;;;7.60;78.40;;;;;;5067163;28;19913;-76
2022/09/29 02:27:20;;;;;;;;;;;7.60;78.40;;;;;;5060806;28;19916;-76
2022/09/29 02:29:46;;;;;;;;;;;7.60;78.40;;;;;;5076816;28;19920;-75
2022/09/29 02:32:11;;;;;;;;;;;7.60;78.40;;;;;;5067567;28;19922;-76
2022/09/29 02:34:40;;;;;;;;;;;7.60;78.50;;;;;;5050879;28;19951;-77
2022/09/29 02:37:12;;;;;;;;;;;7.60;78.50;;;;;;5063305;28;19919;-76
2022/09/29 02:39:46;;;;;;;;;;;7.60;78.50;;;;;;5075805;28;20372;-76
2022/09/29 02:42:16;;;;;;;;;;;7.50;78.40;;;;;;5053050;28;19923;-75
2022/09/29 02:45:02;;;;;;;;;;;7.50;78.40;;;;;;5044941;28;19963;-76
2022/09/29 02:47:37;;;;;;;;;;;7.50;78.50;;;;;;5040947;28;20041;-77
2022/09/29 02:50:08;;;;;;;;;;;7.60;78.50;;;;;;5073284;28;19916;-75
2022/09/29 02:53:00;;;;;;;;;;;7.60;78.50;;;;;;5071785;28;19908;-75
2022/09/29 02:55:37;;;;;;;;;;;7.60;78.50;;;;;;5033734;28;19912;-75
2022/09/29 02:58:06;;;;;;;;;;;7.60;78.50;;;;;;5057411;28;20307;-75
2022/09/29 03:00:31;;;;;;;;;;;7.60;78.50;;;;;;5056203;28;19912;-76
2022/09/29 03:02:57;;;;;;;;;;;7.60;78.50;;;;;;5053703;28;19948;-76
2022/09/29 03:05:23;;;;;;;;;;;7.50;78.50;;;;;;5068442;28;19924;-76
2022/09/29 03:07:49;;;;;;;;;;;7.50;78.60;;;;;;5071894;28;19912;-76
2022/09/29 03:10:15;;;;;;;;;;;7.50;78.60;;;;;;5072734;28;20380;-74
2022/09/29 03:12:40;;;;;;;;;;;7.60;78.70;;;;;;5069555;28;19919;-75
2022/09/29 03:15:06;;;;;;;;;;;7.60;78.70;;;;;;5069930;28;19965;-77
2022/09/29 03:17:31;;;;;;;;;;;7.60;78.70;;;;;;5071219;28;19916;-77
2022/09/29 03:19:57;;;;;;;;;;;7.60;78.70;;;;;;5071807;28;19941;-76
2022/09/29 03:22:22;;;;;;;;;;;7.60;78.60;;;;;;5072060;28;19926;-75
2022/09/29 03:24:48;;;;;;;;;;;7.60;78.60;;;;;;5071576;28;20427;-75
2022/09/29 03:27:14;;;;;;;;;;;7.60;78.60;;;;;;5071571;28;19916;-76
2022/09/29 03:29:39;;;;;;;;;;;7.70;78.70;;;;;;5067077;28;20383;-76
2022/09/29 03:32:05;;;;;;;;;;;7.70;78.80;;;;;;5074852;28;19913;-75
2022/09/29 03:34:31;;;;;;;;;;;7.70;78.60;;;;;;5070606;28;19920;-75
2022/09/29 03:36:56;;;;;;;;;;;7.70;78.60;;;;;;5069311;28;19924;-77
2022/09/29 03:39:22;;;;;;;;;;;7.70;78.60;;;;;;5071102;28;20777;-75
2022/09/29 03:41:48;;;;;;;;;;;7.70;78.70;;;;;;5074481;28;19970;-76
2022/09/29 03:44:13;;;;;;;;;;;7.70;78.70;;;;;;5074474;28;20311;-76
2022/09/29 03:46:38;;;;;;;;;;;7.70;78.70;;;;;;5055903;28;19920;-75
2022/09/29 03:49:04;;;;;;;;;;;7.70;78.70;;;;;;5074516;28;20113;-75
2022/09/29 03:51:29;;;;;;;;;;;7.70;78.70;;;;;;5060911;28;19916;-76
2022/09/29 03:53:55;;;;;;;;;;;7.70;78.70;;;;;;5074689;28;19919;-76
2022/09/29 03:56:21;;;;;;;;;;;7.70;78.60;;;;;;5042775;28;19916;-74
2022/09/29 03:58:46;;;;;;;;;;;7.80;78.80;;;;;;5058401;28;20453;-75
2022/09/29 04:01:12;;;;;;;;;;;7.80;78.70;;;;;;5073545;28;19920;-76
2022/09/29 04:03:37;;;;;;;;;;;7.80;78.70;;;;;;5056931;28;19924;-75
2022/09/29 04:06:03;;;;;;;;;;;7.80;78.70;;;;;;5058821;28;19920;-75
2022/09/29 04:08:28;;;;;;;;;;;7.80;78.70;;;;;;5058549;28;20335;-75
2022/09/29 04:10:54;;;;;;;;;;;7.80;78.70;;;;;;5074520;28;20458;-75
2022/09/29 04:13:20;;;;;;;;;;;7.80;78.70;;;;;;5057545;28;19941;-75
2022/09/29 04:15:48;;;;;;;;;;;7.80;78.70;;;;;;5059579;28;20044;-75
2022/09/29 04:18:14;;;;;;;;;;;7.80;78.60;;;;;;5070415;28;19912;-75
2022/09/29 04:20:39;;;;;;;;;;;7.80;78.60;;;;;;5073345;28;19913;-75
2022/09/29 04:23:05;;;;;;;;;;;7.90;78.60;;;;;;5073572;28;19920;-76
2022/09/29 04:25:31;;;;;;;;;;;7.80;78.60;;;;;;5074271;28;19920;-76
2022/09/29 04:27:56;;;;;;;;;;;7.90;78.60;;;;;;5069580;28;19927;-75
2022/09/29 04:30:22;;;;;;;;;;;7.80;78.50;;;;;;5066595;28;19931;-74
2022/09/29 04:32:47;;;;;;;;;;;7.80;78.50;;;;;;5071645;28;19912;-74
2022/09/29 04:35:13;;;;;;;;;;;7.80;78.60;;;;;;5074229;28;20445;-74
2022/09/29 04:37:38;;;;;;;;;;;7.80;78.60;;;;;;5075199;28;19913;-75
2022/09/29 04:40:04;;;;;;;;;;;7.80;78.60;;;;;;5080574;28;19920;-74
2022/09/29 04:42:30;;;;;;;;;;;7.80;78.70;;;;;;5047082;28;19943;-75
2022/09/29 04:44:55;;;;;;;;;;;7.80;78.70;;;;;;5071185;28;19934;-74
2022/09/29 04:47:21;;;;;;;;;;;7.80;78.70;;;;;;5074023;28;19912;-75
2022/09/29 04:49:46;;;;;;;;;;;7.90;78.70;;;;;;5075113;28;19927;-77
2022/09/29 04:52:12;;;;;;;;;;;7.90;78.70;;;;;;5072081;28;19916;-74
2022/09/29 04:54:37;;;;;;;;;;;7.90;78.70;;;;;;5073191;28;19912;-74
2022/09/29 04:57:03;;;;;;;;;;;7.90;78.70;;;;;;5073414;28;19912;-76
2022/09/29 04:59:28;;;;;;;;;;;7.90;78.70;;;;;;5073758;28;20402;-76
2022/09/29 05:01:54;;;;;;;;;;;7.90;78.70;;;;;;5070842;28;19927;-76
2022/09/29 05:04:19;;;;;;;;;;;7.90;78.70;;;;;;5069598;28;20042;-75
2022/09/29 05:06:45;;;;;;;;;;;7.90;78.70;;;;;;5073274;28;20312;-75
2022/09/29 05:09:11;;;;;;;;;;;7.90;78.60;;;;;;5071603;28;19920;-75
2022/09/29 05:11:36;;;;;;;;;;;7.90;78.60;;;;;;5071238;28;19919;-76
2022/09/29 05:14:02;;;;;;;;;;;7.90;78.70;;;;;;5056816;28;19916;-75
2022/09/29 05:16:27;;;;;;;;;;;7.90;78.70;;;;;;5069315;28;19920;-75
2022/09/29 05:18:53;;;;;;;;;;;7.90;78.70;;;;;;5072482;28;20391;-75
2022/09/29 05:21:18;;;;;;;;;;;7.90;78.70;;;;;;5070632;28;19923;-77
2022/09/29 05:23:43;;;;;;;;;;;8.00;78.70;;;;;;5072426;28;20437;-75
2022/09/29 05:26:09;;;;;;;;;;;8.00;78.70;;;;;;5070917;28;19912;-76
2022/09/29 05:28:35;;;;;;;;;;;8.00;78.70;;;;;;5059472;28;19947;-76
2022/09/29 05:31:01;;;;;;;;;;;8.00;78.80;;;;;;5052637;28;20409;-76
2022/09/29 05:33:26;;;;;;;;;;;8.00;78.80;;;;;;5072375;28;19920;-75
2022/09/29 05:35:52;;;;;;;;;;;8.00;78.70;;;;;;5070076;28;20048;-75
2022/09/29 05:38:17;;;;;;;;;;;8.10;78.70;;;;;;5069304;28;19920;-75
2022/09/29 05:40:43;;;;;;;;;;;8.10;78.70;;;;;;5075018;28;20306;-75
2022/09/29 05:43:08;;;;;;;;;;;8.10;78.70;;;;;;5074476;28;19923;-75
2022/09/29 05:45:34;;;;;;;;;;;8.10;78.70;;;;;;5076449;28;19919;-75
2022/09/29 05:48:00;;;;;;;;;;;8.10;78.70;;;;;;5074463;28;20433;-77
2022/09/29 05:50:25;;;;;;;;;;;8.10;78.70;;;;;;5041997;28;20339;-76
2022/09/29 05:52:51;;;;;;;;;;;8.10;78.70;;;;;;5075083;28;19959;-76
2022/09/29 05:55:17;;;;;;;;;;;8.10;78.60;;;;;;5075268;28;19924;-76
2022/09/29 05:57:46;;;;;;;;;;;8.10;78.70;;;;;;5076864;28;19928;-75
2022/09/29 06:00:11;;;;;;;;;;;8.10;78.70;;;;;;5091497;28;19911;-75
2022/09/29 06:02:37;;;;;;;;;;;8.10;78.70;;;;;;5075389;28;19974;-74
2022/09/29 06:05:02;;;;;;;;;;;8.20;78.70;;;;;;5063249;28;20603;-75
2022/09/29 06:07:28;;;;;;;;;;;8.10;78.60;;;;;;5072553;28;21011;-76
2022/09/29 06:09:53;;;;;;;;;;;8.20;78.70;;;;;;5058598;28;19966;-75
2022/09/29 06:12:19;;;;;;;;;;;8.20;78.80;;;;;;5073617;28;19912;-76
2022/09/29 06:14:44;;;;;;;;;;;8.20;78.70;;;;;;5075681;28;19912;-75
2022/09/29 06:17:10;;;;;;;;;;;8.20;78.80;;;;;;5074815;28;19915;-75
2022/09/29 06:19:35;;;;;;;;;;;8.30;78.70;;;;;;5076785;28;19923;-75
2022/09/29 06:22:01;;;;;;;;;;;8.30;78.70;;;;;;5073537;28;20376;-76
2022/09/29 06:24:26;;;;;;;;;;;8.30;78.70;;;;;;5071322;28;20015;-75
2022/09/29 06:26:51;;;;;;;;;;;8.30;78.70;;;;;;5075655;28;19925;-75
2022/09/29 06:29:17;;;;;;;;;;;8.30;78.70;;;;;;5057276;28;20077;-75
2022/09/29 06:31:42;;;;;;;;;;;8.30;78.70;;;;;;5069626;28;19927;-75
2022/09/29 06:34:08;;;;;;;;;;;8.40;78.70;;;;;;5073945;28;19912;-76
2022/09/29 06:39:18;;;;;;;;;;;8.40;78.70;;;;;;5077299;28;20335;-75
2022/09/29 06:41:47;;;;;;;;;;;8.40;78.60;;;;;;5074750;28;19919;-75
2022/09/29 06:44:13;;;;;;;;;;;8.50;78.80;;;;;;5073584;28;20015;-74
2022/09/29 06:46:38;;;;;;;;;;;8.50;78.70;;;;;;5076006;28;19976;-76
2022/09/29 06:49:04;;;;;;;;;;;8.50;78.60;;;;;;5076139;28;19923;-76
2022/09/29 06:51:29;;;;;;;;;;;8.60;78.70;;;;;;5073168;28;20516;-76
2022/09/29 06:53:55;;;;;;;;;;;8.60;78.60;;;;;;5076004;28;19916;-76
2022/09/29 06:56:21;;;;;;;;;;;8.70;78.60;;;;;;5076359;28;19920;-76
2022/09/29 06:58:46;;;;;;;;;;;8.70;78.60;;;;;;5077938;28;20353;-75
2022/09/29 07:01:12;;;;;;;;;;;8.70;78.60;;;;;;5076465;28;20281;-76
2022/09/29 07:03:37;;;;;;;;;;;8.70;78.50;;;;;;5080132;28;19955;-75
2022/09/29 07:06:06;;;;;;;;;;;8.80;78.60;;;;;;5073352;28;19965;-75
2022/09/29 07:08:34;;;;;;;;;;;8.80;78.50;;;;;;5074755;28;19916;-77
2022/09/29 07:10:59;;;;;;;;;;;8.80;78.50;;;;;;5076236;28;20015;-75
2022/09/29 07:13:25;;;;;;;;;;;8.80;78.50;;;;;;5073706;28;20755;-76
2022/09/29 07:15:50;;;;;;;;;;;8.90;78.50;;;;;;5071897;28;19928;-75
2022/09/29 07:18:16;;;;;;;;;;;8.90;78.50;;;;;;5074723;28;19938;-76
2022/09/29 07:20:41;;;;;;;;;;;8.90;78.50;;;;;;5074927;28;19925;-75
2022/09/29 07:23:07;;;;;;;;;;;8.90;78.40;;;;;;5074883;28;19926;-75
2022/09/29 07:25:33;;;;;;;;;;;8.90;78.40;;;;;;5073451;28;19962;-75
2022/09/29 07:27:59;;;;;;;;;;;9.00;78.50;;;;;;5075522;28;19917;-75
2022/09/29 07:30:26;;;;;;;;;;;8.90;78.40;;;;;;5072295;28;19920;-74
2022/09/29 07:32:52;;;;;;;;;;;8.90;78.40;;;;;;5070217;28;19940;-75
2022/09/29 07:35:18;;;;;;;;;;;9.00;78.50;;;;;;5072246;28;20387;-75
2022/09/29 07:37:49;;;;;;;;;;;9.00;78.50;;;;;;5076856;28;20044;-76
2022/09/29 07:40:15;;;;;;;;;;;9.10;78.50;;;;;;5055997;28;20530;-75
2022/09/29 07:42:40;;;;;;;;;;;9.00;78.40;;;;;;5076104;28;20019;-76
2022/09/29 07:45:06;;;;;;;;;;;9.00;78.40;;;;;;5071187;28;20493;-76
2022/09/29 07:47:31;;;;;;;;;;;9.00;78.40;;;;;;5070037;28;19912;-75
2022/09/29 07:49:57;;;;;;;;;;;9.10;78.50;;;;;;5073702;28;19924;-75
2022/09/29 07:52:22;;;;;;;;;;;9.10;78.50;;;;;;5072294;28;19945;-76
2022/09/29 07:54:48;;;;;;;;;;;9.10;78.50;;;;;;5071423;28;19966;-75
2022/09/29 07:57:13;;;;;;;;;;;9.10;78.40;;;;;;5073356;28;20348;-75
2022/09/29 07:59:39;;;;;;;;;;;9.10;78.40;;;;;;5061169;28;20284;-77
2022/09/29 08:02:04;;;;;;;;;;;9.10;78.40;;;;;;5074439;28;20003;-75
2022/09/29 08:04:30;;;;;;;;;;;9.10;78.50;;;;;;5059020;28;19942;-76
2022/09/29 08:06:55;;;;;;;;;;;9.20;78.50;;;;;;5075322;28;19913;-76
2022/09/29 08:09:21;;;;;;;;;;;9.20;78.40;;;;;;5076310;28;19918;-75
2022/09/29 08:11:46;;;;;;;;;;;9.20;78.40;;;;;;5079466;28;20391;-76
2022/09/29 08:14:12;;;;;;;;;;;9.30;78.40;;;;;;5074718;28;19973;-76
2022/09/29 08:16:37;;;;;;;;;;;9.30;78.40;;;;;;5078992;28;19920;-76
2022/09/29 08:19:03;;;;;;;;;;;9.30;78.40;;;;;;5057867;28;19916;-75
2022/09/29 08:21:29;;;;;;;;;;;9.30;78.40;;;;;;5078602;28;19920;-76
2022/09/29 08:23:54;;;;;;;;;;;9.30;78.40;;;;;;5077824;28;19920;-76
2022/09/29 08:26:20;;;;;;;;;;;9.40;78.40;;;;;;5077093;28;19923;-77
2022/09/29 08:28:45;;;;;;;;;;;9.40;78.30;;;;;;5059765;28;19912;-76
2022/09/29 08:31:12;;;;;;;;;;;9.50;78.40;;;;;;5079446;28;19995;-76
2022/09/29 08:33:38;;;;;;;;;;;9.50;78.40;;;;;;5077581;28;20514;-75
2022/09/29 08:36:07;;;;;;;;;;;9.50;78.30;;;;;;5068821;28;20028;-75
2022/09/29 08:38:32;;;;;;;;;;;9.60;78.40;;;;;;5066352;28;19924;-75
2022/09/29 08:41:02;;;;;;;;;;;9.60;78.40;;;;;;5072607;28;20409;-77
2022/09/29 08:43:38;;;;;;;;;;;9.70;78.30;;;;;;5079022;28;20435;-76
2022/09/29 08:46:04;;;;;;;;;;;9.70;78.20;;;;;;5059515;28;19962;-75
2022/09/29 08:48:31;;;;;;;;;;;9.70;78.30;;;;;;5059527;28;19947;-76
2022/09/29 08:51:06;;;;;;;;;;;9.80;78.30;;;;;;5075377;28;20014;-75
2022/09/29 08:53:34;;;;;;;;;;;9.80;78.20;;;;;;5079523;28;19976;-76
2022/09/29 08:56:01;;;;;;;;;;;9.90;78.20;;;;;;5089214;28;19952;-75
2022/09/29 08:58:26;;;;;;;;;;;9.90;78.10;;;;;;5076798;28;19983;-75
2022/09/29 09:01:08;;;;;;;;;;;10.00;78.10;;;;;;5076083;28;19991;-76
2022/09/29 09:03:36;;;;;;;;;;;10.10;78.10;;;;;;5059590;28;19915;-75
2022/09/29 09:06:05;;;;;;;;;;;10.10;78.00;;;;;;5076263;28;20455;-76
2022/09/29 09:08:33;;;;;;;;;;;10.10;78.00;;;;;;5077779;28;19916;-76
2022/09/29 09:11:22;;;;;;;;;;;10.20;78.00;;;;;;5075063;28;19916;-75
2022/09/29 09:13:51;;;;;;;;;;;10.20;77.90;;;;;;5070691;28;19968;-76
2022/09/29 09:16:20;;;;;;;;;;;10.30;77.90;;;;;;5057851;28;19923;-76
2022/09/29 09:18:53;;;;;;;;;;;10.30;77.90;;;;;;5077034;28;19912;-76
2022/09/29 09:21:20;;;;;;;;;;;10.40;77.90;;;;;;5078767;28;19926;-76
2022/09/29 09:23:52;;;;;;;;;;;10.40;77.80;;;;;;5075334;28;19912;-76
2022/09/29 09:26:17;;;;;;;;;;;10.50;77.80;;;;;;5074944;28;19921;-76
2022/09/29 09:28:48;;;;;;;;;;;10.50;77.70;;;;;;5055078;28;19927;-76
2022/09/29 09:31:13;;;;;;;;;;;10.60;77.70;;;;;;5057668;28;20006;-75
2022/09/29 09:33:46;;;;;;;;;;;10.70;77.80;;;;;;5074656;28;20338;-76
2022/09/29 09:36:13;;;;;;;;;;;10.70;77.60;;;;;;5071484;28;19960;-77
2022/09/29 09:38:44;;;;;;;;;;;10.80;77.60;;;;;;5078710;28;19947;-77
2022/09/29 09:41:11;;;;;;;;;;;10.90;77.60;;;;;;5075247;28;19912;-75
2022/09/29 09:43:38;;;;;;;;;;;10.90;77.50;;;;;;5077603;28;19931;-75
2022/09/29 09:46:23;;;;;;;;;;;11.00;77.40;;;;;;5039819;28;19917;-75
2022/09/29 09:48:56;;;;;;;;;;;11.10;77.40;;;;;;5040443;28;19920;-75
2022/09/29 09:51:30;;;;;;;;;;;11.10;77.40;;;;;;5035733;28;19913;-75
2022/09/29 09:53:57;;;;;;;;;;;11.20;77.40;;;;;;5055485;28;19913;-77
2022/09/29 09:56:41;;;;;;;;;;;11.30;77.40;;;;;;5037764;28;19920;-76
2022/09/29 09:59:13;;;;;;;;;;;11.40;77.30;;;;;;5055377;28;19920;-76
2022/09/29 10:01:38;;;;;;;;;;;11.50;77.20;;;;;;5056704;28;19923;-77
2022/09/29 10:04:04;;;;;;;;;;;11.40;77.10;;;;;;5053909;28;19913;-76
2022/09/29 10:06:30;;;;;;;;;;;11.50;77.20;;;;;;5058280;28;20006;-75
2022/09/29 10:08:55;;;;;;;;;;;11.50;77.20;;;;;;5059018;28;19988;-77
2022/09/29 10:11:22;;;;;;;;;;;11.60;77.20;;;;;;5052390;28;20428;-76
2022/09/29 10:13:48;;;;;;;;;;;11.70;77.20;;;;;;5059572;28;19920;-77
2022/09/29 10:16:16;;;;;;;;;;;11.80;77.10;;;;;;5052618;28;19912;-77
2022/09/29 10:18:45;;;;;;;;;;;12.00;77.00;;;;;;5055008;28;19943;-78
2022/09/29 10:21:24;;;;;;;;;;;12.10;76.90;;;;;;5053056;28;20002;-79
2022/09/29 10:23:50;;;;;;;;;;;12.30;76.80;;;;;;5044754;28;20379;-80
2022/09/29 10:26:16;;;;;;;;;;;12.40;76.70;;;;;;5034922;28;19921;-76
2022/09/29 10:28:43;;;;;;;;;;;12.50;76.60;;;;;;5052618;28;19927;-77
2022/09/29 10:31:19;;;;;;;;;;;12.70;76.40;;;;;;5037239;28;19928;-77
2022/09/29 10:33:45;;;;;;;;;;;12.90;76.30;;;;;;5037230;28;19912;-77
2022/09/29 10:36:12;;;;;;;;;;;13.10;76.20;;;;;;5032915;28;19912;-76
2022/09/29 10:38:37;;;;;;;;;;;13.20;76.00;;;;;;5054227;28;19969;-77
2022/09/29 10:41:04;;;;;;;;;;;13.40;75.90;;;;;;5051300;28;19920;-76
2022/09/29 10:43:39;;;;;;;;;;;13.60;75.80;;;;;;5061432;28;19931;-76
2022/09/29 10:46:05;;;;;;;;;;;13.80;75.60;;;;;;5063256;28;19916;-76
2022/09/29 10:48:31;;;;;;;;;;;14.00;75.50;;;;;;5057750;28;19985;-76
2022/09/29 10:50:57;;;;;;;;;;;14.20;75.30;;;;;;5073819;28;19920;-77
2022/09/29 10:53:32;;;;;;;;;;;14.40;75.10;;;;;;5058228;28;19925;-78
2022/09/29 10:55:57;;;;;;;;;;;14.60;74.90;;;;;;5059304;28;19920;-77
2022/09/29 10:58:26;;;;;;;;;;;14.80;74.70;;;;;;5077353;28;19923;-77
2022/09/29 11:01:01;;;;;;;;;;;15.00;74.50;;;;;;5063922;28;19919;-78
2022/09/29 11:03:26;;;;;;;;;;;15.10;74.40;;;;;;5075204;28;19949;-78
2022/09/29 11:05:53;;;;;;;;;;;15.20;75.00;;;;;;5074015;28;19940;-77
2022/09/29 11:08:24;;;;;;;;;;;15.40;74.10;;;;;;5073571;28;19954;-76
2022/09/29 11:11:01;;;;;;;;;;;15.60;74.00;;;;;;5066935;28;19931;-77
2022/09/29 11:13:39;;;;;;;;;;;15.80;73.80;;;;;;5054161;28;19912;-77
2022/09/29 11:16:24;;;;;;;;;;;16.00;73.70;;;;;;5048471;28;19974;-77
2022/09/29 11:18:51;;;;;;;;;;;16.20;73.50;;;;;;5073648;28;19916;-78
2022/09/29 11:21:23;;;;;;;;;;;16.40;73.20;;;;;;5051118;28;19979;-77
2022/09/29 11:24:07;;;;;;;;;;;16.70;73.10;;;;;;5064654;28;19916;-78
2022/09/29 11:26:34;;;;;;;;;;;16.90;72.90;;;;;;5073853;28;19921;-77
2022/09/29 11:29:18;;;;;;;;;;;17.20;72.60;;;;;;5076123;28;19987;-79
2022/09/29 11:31:55;;;;;;;;;;;17.40;72.40;;;;;;5062156;28;20404;-77
2022/09/29 11:34:30;;;;;;;;;;;17.60;72.20;;;;;;5071747;28;20403;-77
2022/09/29 11:37:14;;;;;;;;;;;17.90;72.00;;;;;;5062436;28;20337;-77
2022/09/29 11:39:40;;;;;;;;;;;18.10;71.80;;;;;;5068388;28;19916;-77
2022/09/29 11:42:08;;;;;;;;;;;18.30;71.50;;;;;;5072347;28;19955;-77
2022/09/29 11:44:48;;;;;;;;;;;18.30;71.30;;;;;;5078911;28;19926;-78
2022/09/29 11:47:20;;;;;;;;;;;18.40;72.00;;;;;;5080143;28;19912;-78
2022/09/29 11:50:01;;;;;;;;;;;18.50;71.10;;;;;;5059238;28;20490;-77
2022/09/29 11:52:51;;;;;;;;;;;18.50;71.00;;;;;;5080823;28;20419;-78
2022/09/29 11:55:36;;;;;;;;;;;18.50;71.00;;;;;;5081340;28;19951;-78
2022/09/29 11:58:04;;;;;;;;;;;18.60;71.00;;;;;;5067276;28;19912;-78
2022/09/29 12:00:36;;;;;;;;;;;18.70;70.90;;;;;;5078306;28;19916;-79
2022/09/29 12:03:04;;;;;;;;;;;18.80;70.80;;;;;;5070135;28;19923;-79
2022/09/29 12:05:51;;;;;;;;;;;18.90;71.50;;;;;;5077450;28;19923;-79
2022/09/29 12:08:20;;;;;;;;;;;19.00;70.70;;;;;;5090064;28;19930;-77
2022/09/29 12:10:46;;;;;;;;;;;19.00;70.60;;;;;;5037838;28;19966;-78
2022/09/29 12:13:20;;;;;;;;;;;19.10;70.40;;;;;;5077021;28;19951;-77
2022/09/29 12:15:45;;;;;;;;;;;19.20;70.40;;;;;;5049530;28;19951;-78
2022/09/29 12:18:15;;;;;;;;;;;19.20;70.40;;;;;;5071116;28;19944;-77
2022/09/29 12:20:42;;;;;;;;;;;19.30;70.30;;;;;;5062831;28;19969;-78
2022/09/29 12:23:09;;;;;;;;;;;19.40;70.20;;;;;;5079923;28;19951;-78
2022/09/29 12:25:36;;;;;;;;;;;19.60;70.10;;;;;;5063126;28;19951;-78
2022/09/29 12:28:04;;;;;;;;;;;19.70;69.90;;;;;;5079368;28;19943;-79
2022/09/29 12:30:38;;;;;;;;;;;19.80;70.60;;;;;;5079278;28;19927;-78
2022/09/29 12:33:05;;;;;;;;;;;19.90;69.60;;;;;;5071398;28;19928;-77
2022/09/29 12:35:31;;;;;;;;;;;20.00;69.60;;;;;;5052889;28;19913;-78
2022/09/29 12:38:05;;;;;;;;;;;20.10;69.40;;;;;;5076928;28;20372;-78
2022/09/29 12:40:37;;;;;;;;;;;20.10;69.20;;;;;;5077731;28;19922;-78
2022/09/29 12:43:09;;;;;;;;;;;20.10;69.20;;;;;;5062113;28;19923;-77
2022/09/29 12:45:53;;;;;;;;;;;20.20;69.20;;;;;;5084736;28;19916;-77
2022/09/29 12:48:25;;;;;;;;;;;20.20;69.20;;;;;;5061893;28;19912;-77
2022/09/29 12:50:58;;;;;;;;;;;20.20;69.20;;;;;;5062852;28;19920;-77
2022/09/29 12:53:28;;;;;;;;;;;20.20;69.10;;;;;;5068667;28;20004;-76
2022/09/29 12:55:54;;;;;;;;;;;20.30;69.10;;;;;;5063880;28;19917;-77
2022/09/29 12:58:39;;;;;;;;;;;20.30;69.00;;;;;;5075217;28;19916;-77
2022/09/29 13:01:13;;;;;;;;;;;20.30;68.90;;;;;;5068137;28;20297;-78
2022/09/29 13:03:56;;;;;;;;;;;20.40;68.90;;;;;;5059531;28;19999;-77
2022/09/29 13:06:34;;;;;;;;;;;20.40;68.90;;;;;;5062377;28;20039;-76
2022/09/29 13:09:06;;;;;;;;;;;20.40;68.90;;;;;;5077013;28;19916;-77
2022/09/29 13:11:37;;;;;;;;;;;20.40;68.80;;;;;;5079530;28;20368;-77
2022/09/29 13:14:12;;;;;;;;;;;20.40;68.80;;;;;;5062997;28;19916;-77
2022/09/29 13:16:53;;;;;;;;;;;20.40;68.70;;;;;;5062254;28;19920;-78
2022/09/29 13:19:30;;;;;;;;;;;20.30;68.60;;;;;;5064605;28;19977;-78
2022/09/29 13:22:14;;;;;;;;;;;20.30;68.60;;;;;;5055812;28;20371;-76
2022/09/29 13:24:42;;;;;;;;;;;20.30;68.60;;;;;;5068743;28;19927;-77
2022/09/29 13:27:20;;;;;;;;;;;20.20;68.60;;;;;;5080398;28;20467;-77
2022/09/29 13:29:48;;;;;;;;;;;20.20;68.70;;;;;;5080338;28;20010;-78
2022/09/29 13:32:13;;;;;;;;;;;20.20;68.70;;;;;;5068567;28;19969;-76
2022/09/29 13:34:39;;;;;;;;;;;20.10;68.60;;;;;;5072891;28;21432;-74
2022/09/29 13:37:10;;;;;;;;;;;20.10;68.70;;;;;;5058217;28;19920;-78
2022/09/29 13:39:36;;;;;;;;;;;20.10;68.70;;;;;;5093484;27;19916;-78
2022/09/29 13:42:24;;;;;;;;;;;20.10;68.70;;;;;;5085950;28;19916;-78
2022/09/29 13:45:09;;;;;;;;;;;20.00;68.60;;;;;;5075367;28;19928;-78
2022/09/29 13:47:34;;;;;;;;;;;20.00;68.60;;;;;;5084448;28;19956;-77
2022/09/29 13:50:02;;;;;;;;;;;19.90;68.60;;;;;;5065716;28;19978;-77
2022/09/29 13:52:28;;;;;;;;;;;19.90;68.70;;;;;;5070621;28;19920;-77
2022/09/29 13:54:53;;;;;;;;;;;19.90;68.70;;;;;;5073170;28;19982;-77
2022/09/29 13:57:22;;;;;;;;;;;19.80;68.60;;;;;;5088040;28;19943;-77
2022/09/29 13:59:54;;;;;;;;;;;19.70;68.70;;;;;;5080521;28;19922;-77
2022/09/29 14:02:32;;;;;;;;;;;19.70;68.80;;;;;;5083961;28;19922;-77
2022/09/29 14:04:57;;;;;;;;;;;19.60;68.90;;;;;;5084924;28;19946;-77
2022/09/29 14:07:34;;;;;;;;;;;19.50;69.00;;;;;;5069429;28;19960;-77
2022/09/29 14:10:05;;;;;;;;;;;19.50;69.00;;;;;;5069193;28;19927;-77
2022/09/29 14:12:30;;;;;;;;;;;19.50;69.00;;;;;;5085113;28;19984;-77
2022/09/29 14:14:57;;;;;;;;;;;19.50;69.00;;;;;;5067951;28;19967;-77
2022/09/29 14:17:24;;;;;;;;;;;19.50;68.90;;;;;;5086406;28;19923;-76
2022/09/29 14:19:59;;;;;;;;;;;19.50;68.90;;;;;;5088164;28;19912;-78
2022/09/29 14:22:25;;;;;;;;;;;19.50;68.90;;;;;;5098687;28;19912;-77
2022/09/29 14:24:51;;;;;;;;;;;19.40;68.80;;;;;;5086211;28;19916;-77
2022/09/29 14:27:32;;;;;;;;;;;19.30;68.80;;;;;;5066548;28;19962;-77
2022/09/29 14:30:07;;;;;;;;;;;19.30;69.80;;;;;;5034304;28;20000;-77
2022/09/29 14:32:40;;;;;;;;;;;19.20;68.90;;;;;;5073873;28;19912;-77
2022/09/29 14:35:12;;;;;;;;;;;19.20;69.00;;;;;;5044363;28;20002;-77
2022/09/29 14:37:38;;;;;;;;;;;19.20;69.00;;;;;;5071904;28;19920;-78